createdAt,value
2023-03-13T00:01:28.374Z,101298.46
2023-03-13T00:03:56.577Z,101291.95
2023-03-13T00:06:26.696Z,101305.10
2023-03-13T00:08:55.864Z,101302.71
2023-03-13T00:11:23.570Z,101305.55
2023-03-13T00:13:55.918Z,101298.27
2023-03-13T00:16:24.170Z,101295.55
2023-03-13T00:18:54.551Z,101295.65
2023-03-13T00:21:25.503Z,101294.08
2023-03-13T00:23:53.240Z,101297.41
2023-03-13T00:26:23.284Z,101292.94
2023-03-13T00:28:52.611Z,101277.57
2023-03-13T00:31:26.425Z,101281.20
2023-03-13T00:33:58.136Z,101276.33
2023-03-13T00:36:28.065Z,101271.88
2023-03-13T00:38:57.281Z,101262.49
2023-03-13T00:41:30.155Z,101268.22
2023-03-13T00:43:58.158Z,101271.52
2023-03-13T00:46:28.108Z,101276.42
2023-03-13T00:48:55.964Z,101283.71
2023-03-13T00:51:28.000Z,101286.59
2023-03-13T00:53:57.633Z,101284.99
2023-03-13T00:56:25.435Z,101272.79
2023-03-13T00:58:53.181Z,101267.89
2023-03-13T01:01:25.403Z,101265.80
2023-03-13T01:04:04.966Z,101265.37
2023-03-13T01:06:34.345Z,101259.65
2023-03-13T01:09:02.442Z,101258.38
2023-03-13T01:11:34.947Z,101261.25
2023-03-13T01:14:05.371Z,101253.96
2023-03-13T01:16:35.224Z,101249.97
2023-03-13T01:19:05.844Z,101251.90
2023-03-13T01:21:33.638Z,101257.26
2023-03-13T01:24:01.715Z,101253.30
2023-03-13T01:26:29.908Z,101255.66
2023-03-13T01:28:58.266Z,101250.46
2023-03-13T01:31:30.033Z,101263.90
2023-03-13T01:34:03.693Z,101257.75
2023-03-13T01:36:31.956Z,101254.55
2023-03-13T01:39:01.346Z,101252.81
2023-03-13T01:41:31.544Z,101249.18
2023-03-13T01:43:59.947Z,101247.91
2023-03-13T01:46:29.401Z,101254.09
2023-03-13T01:48:57.101Z,101233.32
2023-03-13T01:51:27.830Z,101238.23
2023-03-13T01:54:34.010Z,101234.60
2023-03-13T01:57:28.031Z,101223.65
2023-03-13T02:00:02.844Z,101223.19
2023-03-13T02:02:31.501Z,101222.37
2023-03-13T02:05:04.379Z,101223.97
2023-03-13T02:07:40.273Z,101226.36
2023-03-13T02:10:10.191Z,101224.66
2023-03-13T02:12:41.000Z,101219.27
2023-03-13T02:15:11.519Z,101216.74
2023-03-13T02:17:40.651Z,101207.72
2023-03-13T02:20:09.102Z,101211.35
2023-03-13T02:22:48.850Z,101208.83
2023-03-13T02:25:25.562Z,101207.55
2023-03-13T02:28:01.500Z,101201.87
2023-03-13T02:30:29.653Z,101197.42
2023-03-13T02:32:57.698Z,101194.94
2023-03-13T02:35:25.504Z,101201.08
2023-03-13T02:37:58.160Z,101191.27
2023-03-13T02:40:30.542Z,101198.11
2023-03-13T02:43:01.708Z,101196.02
2023-03-13T02:45:29.771Z,101187.02
2023-03-13T02:47:57.431Z,101184.47
2023-03-13T02:50:25.626Z,101179.59
2023-03-13T02:53:04.811Z,101171.81
2023-03-13T02:55:39.565Z,101170.08
2023-03-13T02:58:07.419Z,101164.39
2023-03-13T03:00:35.425Z,101164.69
2023-03-13T03:03:03.116Z,101154.88
2023-03-13T03:05:30.803Z,101140.29
2023-03-13T03:07:58.454Z,101144.74
2023-03-13T03:10:26.218Z,101142.35
2023-03-13T03:12:54.020Z,101140.42
2023-03-13T03:15:21.801Z,101144.22
2023-03-13T03:17:49.437Z,101149.94
2023-03-13T03:20:17.069Z,101145.16
2023-03-13T03:22:44.763Z,101143.23
2023-03-13T03:25:12.455Z,101148.60
2023-03-13T03:27:40.193Z,101156.71
2023-03-13T03:30:08.530Z,101147.35
2023-03-13T03:32:36.355Z,101150.69
2023-03-13T03:35:04.309Z,101143.40
2023-03-13T03:37:32.047Z,101139.09
2023-03-13T03:39:59.731Z,101133.03
2023-03-13T03:42:27.426Z,101135.26
2023-03-13T03:44:55.109Z,101132.22
2023-03-13T03:47:23.036Z,101118.09
2023-03-13T03:49:50.760Z,101124.73
2023-03-13T03:52:18.543Z,101122.80
2023-03-13T03:54:46.267Z,101118.35
2023-03-13T03:57:14.008Z,101115.67
2023-03-13T03:59:41.732Z,101109.95
2023-03-13T04:02:09.570Z,101112.79
2023-03-13T04:04:37.370Z,101102.98
2023-03-13T04:07:05.196Z,101107.43
2023-03-13T04:09:33.014Z,101106.16
2023-03-13T04:12:00.759Z,101104.91
2023-03-13T04:14:28.384Z,101105.53
2023-03-13T04:16:56.074Z,101109.52
2023-03-13T04:19:23.984Z,101107.79
2023-03-13T04:21:51.778Z,101099.25
2023-03-13T04:24:19.552Z,101104.16
2023-03-13T04:26:47.326Z,101095.13
2023-03-13T04:29:15.045Z,101086.11
2023-03-13T04:31:42.675Z,101082.48
2023-03-13T04:34:10.382Z,101082.02
2023-03-13T04:36:38.088Z,101082.77
2023-03-13T04:39:05.891Z,101075.80
2023-03-13T04:41:33.567Z,101081.86
2023-03-13T04:44:01.257Z,101080.62
2023-03-13T04:46:29.104Z,101080.13
2023-03-13T04:48:56.850Z,101072.38
2023-03-13T04:51:24.523Z,101064.95
2023-03-13T04:53:52.301Z,101075.88
2023-03-13T04:56:41.609Z,101059.26
2023-03-13T04:59:13.173Z,101054.39
2023-03-13T05:01:41.631Z,101053.48
2023-03-13T05:04:09.799Z,101052.07
2023-03-13T05:06:37.586Z,101057.70
2023-03-13T05:09:05.626Z,101060.87
2023-03-13T05:11:33.759Z,101051.38
2023-03-13T05:14:01.430Z,101050.10
2023-03-13T05:16:29.321Z,101044.38
2023-03-13T05:18:57.080Z,101047.26
2023-03-13T05:21:24.847Z,101041.51
2023-03-13T05:23:52.602Z,101037.55
2023-03-13T05:26:20.284Z,101043.40
2023-03-13T05:28:48.013Z,101048.60
2023-03-13T05:31:15.846Z,101049.06
2023-03-13T05:33:43.593Z,101043.50
2023-03-13T05:36:11.349Z,101036.66
2023-03-13T05:38:39.084Z,101031.11
2023-03-13T05:41:06.761Z,101034.08
2023-03-13T05:43:34.430Z,101036.27
2023-03-13T05:46:02.207Z,101051.51
2023-03-13T05:48:29.927Z,101040.69
2023-03-13T05:50:57.581Z,101051.97
2023-03-13T05:53:25.332Z,101043.70
2023-03-13T05:55:53.065Z,101036.21
2023-03-13T05:58:20.775Z,101036.99
2023-03-13T06:00:49.772Z,101039.38
2023-03-13T06:03:17.407Z,101034.48
2023-03-13T06:05:45.115Z,101040.20
2023-03-13T06:08:12.941Z,101040.95
2023-03-13T06:10:40.601Z,101032.68
2023-03-13T06:13:19.428Z,101043.17
2023-03-13T06:15:58.502Z,101028.88
2023-03-13T06:18:28.159Z,101030.45
2023-03-13T06:21:03.315Z,101038.53
2023-03-13T06:23:31.063Z,101041.41
2023-03-13T06:25:58.785Z,101032.16
2023-03-13T06:28:26.454Z,101035.81
2023-03-13T06:30:54.213Z,101033.27
2023-03-13T06:33:22.606Z,101029.14
2023-03-13T06:35:56.693Z,101031.01
2023-03-13T06:38:29.142Z,101037.22
2023-03-13T06:40:57.273Z,101034.18
2023-03-13T06:43:25.298Z,101034.18
2023-03-13T06:45:53.211Z,101032.41
2023-03-13T06:48:21.406Z,101027.48
2023-03-13T06:50:49.114Z,101030.32
2023-03-13T06:53:19.818Z,101039.25
2023-03-13T06:55:48.290Z,101033.20
2023-03-13T06:58:31.111Z,101048.30
2023-03-13T07:01:00.497Z,101047.49
2023-03-13T07:03:28.269Z,101049.12
2023-03-13T07:05:59.653Z,101047.33
2023-03-13T07:08:27.836Z,101038.86
2023-03-13T07:10:59.728Z,101034.08
2023-03-13T07:13:27.779Z,101023.06
2023-03-13T07:15:55.954Z,101026.85
2023-03-13T07:18:24.432Z,101021.55
2023-03-13T07:20:56.915Z,101022.48
2023-03-13T07:23:26.129Z,101021.79
2023-03-13T07:26:01.580Z,101020.67
2023-03-13T07:28:31.853Z,101002.59
2023-03-13T07:31:14.710Z,101011.75
2023-03-13T07:33:42.785Z,101004.52
2023-03-13T07:36:11.352Z,101004.91
2023-03-13T07:38:39.359Z,101007.95
2023-03-13T07:41:07.367Z,101002.66
2023-03-13T07:43:35.119Z,101012.89
2023-03-13T07:46:07.399Z,101012.89
2023-03-13T07:48:40.465Z,101004.36
2023-03-13T07:51:12.788Z,101009.98
2023-03-13T07:53:40.562Z,101005.05
2023-03-13T07:56:11.431Z,101015.21
2023-03-13T07:58:40.962Z,101021.55
2023-03-13T08:01:18.616Z,101023.95
2023-03-13T08:03:50.319Z,101030.84
2023-03-13T08:06:24.526Z,101021.88
2023-03-13T08:08:53.532Z,101014.89
2023-03-13T08:11:25.989Z,101018.16
2023-03-13T08:13:54.802Z,101015.70
2023-03-13T08:16:24.950Z,101017.11
2023-03-13T08:18:56.256Z,101010.96
2023-03-13T08:21:26.659Z,101025.22
2023-03-13T08:23:56.577Z,101024.63
2023-03-13T08:26:26.459Z,101014.46
2023-03-13T08:28:59.820Z,101008.51
2023-03-13T08:31:33.415Z,101007.79
2023-03-13T08:34:01.580Z,100987.98
2023-03-13T08:36:32.521Z,100999.23
2023-03-13T08:39:03.071Z,100982.74
2023-03-13T08:41:34.945Z,100987.38
2023-03-13T08:44:03.488Z,100980.88
2023-03-13T08:46:32.878Z,100981.11
2023-03-13T08:49:00.968Z,100973.16
2023-03-13T08:51:30.132Z,100969.34
2023-03-13T08:53:58.256Z,100966.52
2023-03-13T08:56:29.094Z,100975.98
2023-03-13T08:58:59.915Z,100964.53
2023-03-13T09:01:30.241Z,100970.32
2023-03-13T09:03:58.387Z,100959.95
2023-03-13T09:06:26.685Z,100961.81
2023-03-13T09:08:54.453Z,100954.69
2023-03-13T09:11:22.940Z,100956.19
2023-03-13T09:13:52.142Z,100946.58
2023-03-13T09:16:26.080Z,100942.69
2023-03-13T09:18:55.138Z,100943.24
2023-03-13T09:21:25.701Z,100943.54
2023-03-13T09:23:53.743Z,100931.01
2023-03-13T09:26:23.490Z,100925.81
2023-03-13T09:28:52.901Z,100926.17
2023-03-13T09:31:32.132Z,100933.79
2023-03-13T09:34:00.944Z,100916.55
2023-03-13T09:36:29.764Z,100923.42
2023-03-13T09:39:00.048Z,100920.02
2023-03-13T09:41:45.042Z,100918.48
2023-03-13T09:44:20.767Z,100913.55
2023-03-13T09:46:54.164Z,100898.37
2023-03-13T09:49:43.535Z,100892.62
2023-03-13T09:52:20.543Z,100882.74
2023-03-13T09:54:55.683Z,100881.70
2023-03-13T09:58:05.401Z,100882.26
2023-03-13T10:00:40.606Z,100884.64
2023-03-13T10:03:14.307Z,100873.69
2023-03-13T10:05:49.092Z,100863.48
2023-03-13T10:08:28.850Z,100863.48
2023-03-13T10:11:16.243Z,100857.99
2023-03-13T10:14:29.115Z,100849.33
2023-03-13T10:17:21.186Z,100845.92
2023-03-13T10:19:56.985Z,100837.52
2023-03-13T10:22:27.912Z,100837.26
2023-03-13T10:25:00.717Z,100828.82
2023-03-13T10:27:28.502Z,100838.02
2023-03-13T10:29:56.214Z,100837.72
2023-03-13T10:32:23.943Z,100832.98
2023-03-13T10:34:56.650Z,100826.89
2023-03-13T10:37:27.773Z,100821.59
2023-03-13T10:39:56.702Z,100827.65
2023-03-13T10:42:36.774Z,100807.93
2023-03-13T10:45:07.104Z,100807.90
2023-03-13T10:47:36.488Z,100791.61
2023-03-13T10:50:05.992Z,100792.92
2023-03-13T10:52:45.359Z,100775.55
2023-03-13T10:55:21.107Z,100779.41
2023-03-13T10:58:04.086Z,100780.43
2023-03-13T11:00:34.691Z,100759.37
2023-03-13T11:03:07.266Z,100751.42
2023-03-13T11:05:42.151Z,100750.64
2023-03-13T11:08:30.280Z,100736.38
2023-03-13T11:11:01.299Z,100742.53
2023-03-13T11:13:38.034Z,100729.61
2023-03-13T11:16:24.629Z,100730.10
2023-03-13T11:19:09.318Z,100723.73
2023-03-13T11:21:55.821Z,100716.30
2023-03-13T11:24:40.357Z,100716.27
2023-03-13T11:27:31.454Z,100699.62
2023-03-13T11:30:14.484Z,100690.05
2023-03-13T11:33:02.778Z,100685.47
2023-03-13T11:35:45.766Z,100684.91
2023-03-13T11:38:45.391Z,100677.48
2023-03-13T11:41:54.467Z,100666.70
2023-03-13T11:44:58.267Z,100667.38
2023-03-13T11:47:52.308Z,100662.87
2023-03-13T11:50:25.282Z,100651.39
2023-03-13T11:53:21.252Z,100659.11
2023-03-13T11:56:02.809Z,100648.32
2023-03-13T11:59:04.057Z,100649.66
2023-03-13T12:01:55.456Z,100636.41
2023-03-13T12:04:39.836Z,100642.23
2023-03-13T12:07:27.438Z,100631.48
2023-03-13T12:10:15.647Z,100613.00
2023-03-13T12:13:25.352Z,100631.02
2023-03-13T12:15:57.927Z,100615.69
2023-03-13T12:18:37.880Z,100602.99
2023-03-13T12:21:20.540Z,100592.66
2023-03-13T12:24:11.281Z,100593.91
2023-03-13T12:26:48.054Z,100580.11
2023-03-13T12:29:38.168Z,100567.09
2023-03-13T12:32:19.533Z,100548.55
2023-03-13T12:35:21.675Z,100540.08
2023-03-13T12:38:03.729Z,100528.96
2023-03-13T12:40:40.139Z,100528.84
2023-03-13T12:43:12.738Z,100516.70
2023-03-13T12:45:55.568Z,100508.88
2023-03-13T12:48:29.197Z,100514.61
2023-03-13T12:51:27.344Z,100508.91
2023-03-13T12:54:10.282Z,100490.61
2023-03-13T12:56:53.434Z,100486.16
2023-03-13T12:59:28.746Z,100482.04
2023-03-13T13:01:57.708Z,100467.62
2023-03-13T13:04:29.583Z,100465.39
2023-03-13T13:07:09.027Z,100454.87
2023-03-13T13:10:02.256Z,100449.70
2023-03-13T13:12:31.270Z,100438.32
2023-03-13T13:15:05.001Z,100438.80
2023-03-13T13:17:41.891Z,100424.29
2023-03-13T13:20:31.707Z,100408.10
2023-03-13T13:23:25.426Z,100397.12
2023-03-13T13:25:54.813Z,100380.90
2023-03-13T13:28:34.897Z,100383.25
2023-03-13T13:31:03.501Z,100372.00
2023-03-13T13:33:32.029Z,100369.09
2023-03-13T13:36:11.656Z,100372.55
2023-03-13T13:38:43.188Z,100362.87
2023-03-13T13:41:10.867Z,100358.40
2023-03-13T13:43:40.035Z,100360.16
2023-03-13T13:46:24.652Z,100349.99
2023-03-13T13:49:10.629Z,100351.73
2023-03-13T13:51:42.670Z,100336.16
2023-03-13T13:54:19.394Z,100330.63
2023-03-13T13:56:56.272Z,100327.98
2023-03-13T13:59:32.010Z,100317.95
2023-03-13T14:02:33.334Z,100314.68
2023-03-13T14:05:17.175Z,100294.41
2023-03-13T14:08:09.539Z,100299.05
2023-03-13T14:10:43.381Z,100292.87
2023-03-13T14:13:16.282Z,100294.08
2023-03-13T14:15:46.831Z,100284.01
2023-03-13T14:18:31.908Z,100277.83
2023-03-13T14:21:02.461Z,100275.11
2023-03-13T14:23:43.848Z,100269.32
2023-03-13T14:26:11.794Z,100263.47
2023-03-13T14:28:44.718Z,100263.34
2023-03-13T14:31:23.377Z,100269.20
2023-03-13T14:33:51.495Z,100267.79
2023-03-13T14:36:19.570Z,100263.11
2023-03-13T14:38:59.212Z,100265.10
2023-03-13T14:41:44.106Z,100263.96
2023-03-13T14:44:26.870Z,100265.10
2023-03-13T14:46:58.081Z,100267.33
2023-03-13T14:49:28.601Z,100253.17
2023-03-13T14:52:05.650Z,100245.06
2023-03-13T14:54:39.164Z,100242.18
2023-03-13T14:57:17.393Z,100235.05
2023-03-13T14:59:45.570Z,100220.53
2023-03-13T15:02:19.365Z,100215.44
2023-03-13T15:05:04.939Z,100206.87
2023-03-13T15:07:42.435Z,100211.90
2023-03-13T15:10:20.206Z,100198.04
2023-03-13T15:12:48.065Z,100193.03
2023-03-13T15:15:15.894Z,100182.27
2023-03-13T15:17:43.822Z,100173.05
2023-03-13T15:20:14.839Z,100163.87
2023-03-13T15:22:45.380Z,100169.66
2023-03-13T15:25:23.849Z,100162.55
2023-03-13T15:27:52.340Z,100170.38
2023-03-13T15:30:24.659Z,100166.61
2023-03-13T15:32:53.239Z,100160.01
2023-03-13T15:35:34.465Z,100155.49
2023-03-13T15:38:03.888Z,100148.04
2023-03-13T15:40:33.208Z,100142.97
2023-03-13T15:43:01.443Z,100141.34
2023-03-13T15:45:29.303Z,100130.80
2023-03-13T15:47:57.126Z,100118.70
2023-03-13T15:50:30.975Z,100109.06
2023-03-13T15:53:01.970Z,100101.73
2023-03-13T15:55:30.551Z,100084.93
2023-03-13T15:57:58.407Z,100077.05
2023-03-13T16:00:27.296Z,100079.70
2023-03-13T16:02:54.996Z,100074.01
2023-03-13T16:05:22.795Z,100058.67
2023-03-13T16:07:50.546Z,100052.00
2023-03-13T16:10:26.998Z,100056.74
2023-03-13T16:12:55.587Z,100040.52
2023-03-13T16:15:23.475Z,100033.26
2023-03-13T16:17:51.814Z,100018.38
2023-03-13T16:20:22.754Z,100024.14
2023-03-13T16:22:53.408Z,100009.42
2023-03-13T16:25:21.428Z,100011.84
2023-03-13T16:27:49.492Z,99999.05
2023-03-13T16:30:25.436Z,99983.13
2023-03-13T16:32:53.472Z,99979.83
2023-03-13T16:35:21.712Z,99974.92
2023-03-13T16:37:51.903Z,99972.90
2023-03-13T16:40:25.298Z,99960.90
2023-03-13T16:42:53.270Z,99958.64
2023-03-13T16:45:21.145Z,99950.59
2023-03-13T16:47:49.323Z,99940.72
2023-03-13T16:50:33.653Z,99928.49
2023-03-13T16:53:02.143Z,99930.42
2023-03-13T16:55:31.530Z,99933.13
2023-03-13T16:58:00.042Z,99940.30
2023-03-13T17:00:30.363Z,99928.85
2023-03-13T17:02:59.852Z,99921.85
2023-03-13T17:05:28.187Z,99912.47
2023-03-13T17:07:56.482Z,99901.80
2023-03-13T17:10:25.425Z,99904.78
2023-03-13T17:12:53.464Z,99895.63
2023-03-13T17:15:21.466Z,99898.83
2023-03-13T17:17:52.764Z,99893.93
2023-03-13T17:20:26.098Z,99887.68
2023-03-13T17:22:54.844Z,99883.56
2023-03-13T17:25:23.251Z,99871.56
2023-03-13T17:27:52.751Z,99859.10
2023-03-13T17:30:29.433Z,99854.20
2023-03-13T17:32:57.815Z,99850.34
2023-03-13T17:35:26.976Z,99838.89
2023-03-13T17:37:54.916Z,99830.88
2023-03-13T17:40:26.104Z,99821.76
2023-03-13T17:42:54.319Z,99822.05
2023-03-13T17:45:22.206Z,99811.42
2023-03-13T17:47:52.630Z,99810.90
2023-03-13T17:50:24.877Z,99798.93
2023-03-13T17:52:52.577Z,99788.53
2023-03-13T17:55:20.850Z,99785.69
2023-03-13T17:57:53.267Z,99789.61
2023-03-13T18:00:27.212Z,99797.27
2023-03-13T18:02:54.923Z,99799.72
2023-03-13T18:05:23.264Z,99798.18
2023-03-13T18:07:51.727Z,99793.51
2023-03-13T18:10:23.030Z,99791.45
2023-03-13T18:12:52.481Z,99784.19
2023-03-13T18:15:21.683Z,99772.74
2023-03-13T18:17:50.059Z,99773.03
2023-03-13T18:20:21.005Z,99773.33
2023-03-13T18:22:49.036Z,99772.84
2023-03-13T18:25:17.057Z,99756.20
2023-03-13T18:27:44.945Z,99752.34
2023-03-13T18:30:20.083Z,99745.86
2023-03-13T18:32:48.037Z,99738.08
2023-03-13T18:35:16.632Z,99730.03
2023-03-13T18:37:46.451Z,99721.76
2023-03-13T18:40:40.606Z,99731.21
2023-03-13T18:43:08.304Z,99744.84
2023-03-13T18:45:37.441Z,99723.23
2023-03-13T18:48:05.258Z,99733.96
2023-03-13T18:50:33.704Z,99726.96
2023-03-13T18:53:01.734Z,99729.05
2023-03-13T18:55:31.432Z,99718.39
2023-03-13T18:57:59.107Z,99718.69
2023-03-13T19:00:31.050Z,99707.77
2023-03-13T19:02:58.889Z,99733.86
2023-03-13T19:05:26.702Z,99730.46
2023-03-13T19:07:54.663Z,99733.34
2023-03-13T19:10:31.236Z,99731.77
2023-03-13T19:12:58.997Z,99742.98
2023-03-13T19:15:29.857Z,99756.29
2023-03-13T19:18:03.063Z,99736.73
2023-03-13T19:20:31.231Z,99727.88
2023-03-13T19:23:01.629Z,99726.34
2023-03-13T19:25:30.455Z,99710.94
2023-03-13T19:27:58.228Z,99690.11
2023-03-13T19:30:27.103Z,99687.00
2023-03-13T19:32:54.932Z,99687.75
2023-03-13T19:35:22.892Z,99679.71
2023-03-13T19:37:51.055Z,99687.00
2023-03-13T19:40:22.216Z,99697.43
2023-03-13T19:42:50.001Z,99705.51
2023-03-13T19:45:22.902Z,99709.70
2023-03-13T19:47:50.702Z,99696.13
2023-03-13T19:50:24.601Z,99705.25
2023-03-13T19:52:52.285Z,99702.92
2023-03-13T19:55:20.417Z,99709.95
2023-03-13T19:57:48.126Z,99718.30
2023-03-13T20:00:28.513Z,99721.70
2023-03-13T20:02:56.698Z,99745.17
2023-03-13T20:05:25.216Z,99763.19
2023-03-13T20:07:55.003Z,99773.59
2023-03-13T20:10:23.374Z,99792.88
2023-03-13T20:12:51.104Z,99791.84
2023-03-13T20:15:19.163Z,99796.28
2023-03-13T20:17:46.938Z,99804.06
2023-03-13T20:20:15.049Z,99811.36
2023-03-13T20:22:43.164Z,99843.17
2023-03-13T20:25:11.938Z,99864.04
2023-03-13T20:27:40.495Z,99872.12
2023-03-13T20:30:09.064Z,99870.58
2023-03-13T20:32:39.480Z,99869.27
2023-03-13T20:35:15.277Z,99881.24
2023-03-13T20:37:43.027Z,99902.59
2023-03-13T20:40:14.464Z,99921.62
2023-03-13T20:42:42.245Z,99938.34
2023-03-13T20:45:10.882Z,99971.16
2023-03-13T20:47:38.703Z,100024.07
2023-03-13T20:50:06.810Z,100050.89
2023-03-13T20:52:34.590Z,100041.53
2023-03-13T20:55:02.283Z,100049.91
2023-03-13T20:57:30.212Z,100070.24
2023-03-13T20:59:58.081Z,100081.49
2023-03-13T21:02:25.776Z,100107.85
2023-03-13T21:04:53.854Z,100124.79
2023-03-13T21:07:22.270Z,100128.45
2023-03-13T21:09:50.061Z,100122.17
2023-03-13T21:12:17.807Z,100115.90
2023-03-13T21:14:45.960Z,100123.97
2023-03-13T21:17:14.583Z,100126.82
2023-03-13T21:19:44.165Z,100126.06
2023-03-13T21:22:12.750Z,100138.59
2023-03-13T21:24:40.794Z,100137.84
2023-03-13T21:27:08.493Z,100148.79
2023-03-13T21:29:36.429Z,100132.87
2023-03-13T21:32:04.155Z,100123.74
2023-03-13T21:34:32.048Z,100115.90
2023-03-13T21:36:59.838Z,100121.65
2023-03-13T21:39:27.545Z,100120.60
2023-03-13T21:41:55.483Z,100128.45
2023-03-13T21:44:23.725Z,100125.31
2023-03-13T21:46:53.489Z,100117.50
2023-03-13T21:49:21.365Z,100116.45
2023-03-13T21:51:49.019Z,100120.11
2023-03-13T21:54:16.736Z,100130.02
2023-03-13T21:56:44.413Z,100117.50
2023-03-13T21:59:12.140Z,100125.09
2023-03-13T22:01:39.817Z,100107.06
2023-03-13T22:04:07.481Z,100108.87
2023-03-13T22:06:35.458Z,100108.37
2023-03-13T22:09:04.870Z,100093.23
2023-03-13T22:11:33.353Z,100103.41
2023-03-13T22:14:01.022Z,100109.13
2023-03-13T22:16:29.495Z,100117.76
2023-03-13T22:18:57.253Z,100134.20
2023-03-13T22:21:25.395Z,100155.07
2023-03-13T22:23:53.109Z,100138.06
2023-03-13T22:26:20.866Z,100153.20
2023-03-13T22:28:48.597Z,100141.73
2023-03-13T22:31:16.507Z,100165.70
2023-03-13T22:33:44.235Z,100176.13
2023-03-13T22:36:12.238Z,100161.74
2023-03-13T22:38:40.968Z,100158.27
2023-03-13T22:41:12.437Z,100168.41
2023-03-13T22:43:40.301Z,100175.15
2023-03-13T22:46:08.470Z,100194.31
2023-03-13T22:48:37.305Z,100186.43
2023-03-13T22:51:10.879Z,100189.21
2023-03-13T22:53:40.755Z,100182.83
2023-03-13T22:56:13.068Z,100195.78
2023-03-13T22:58:42.027Z,100192.77
2023-03-13T23:01:12.026Z,100206.77
2023-03-13T23:03:39.820Z,100212.95
2023-03-13T23:06:16.494Z,100212.63
2023-03-13T23:08:44.160Z,100224.49
2023-03-13T23:11:12.347Z,100225.24
2023-03-13T23:13:40.212Z,100230.90
2023-03-13T23:16:10.010Z,100246.44
2023-03-13T23:18:39.243Z,100250.52
2023-03-13T23:21:09.483Z,100255.39
2023-03-13T23:23:37.945Z,100255.79
2023-03-13T23:26:09.633Z,100246.30
2023-03-13T23:28:38.782Z,100262.16
2023-03-13T23:31:18.224Z,100271.91
2023-03-13T23:33:46.720Z,100294.11
2023-03-13T23:36:17.703Z,100286.55
2023-03-13T23:38:49.121Z,100287.05
2023-03-13T23:41:16.853Z,100290.64
2023-03-13T23:43:44.576Z,100306.80
2023-03-13T23:46:23.482Z,100300.88
2023-03-13T23:48:56.052Z,100285.28
2023-03-13T23:51:24.609Z,100312.29
2023-03-13T23:53:52.854Z,100296.04
2023-03-13T23:56:20.720Z,100283.94
2023-03-13T23:58:48.486Z,100283.02
